sensor_id;sensor_type;location;lat;lon;timestamp;temperature;humidity
12156;DHT22;6141;49.092;8.516;2024-01-25T00:02:15;11.00;43.10
12156;DHT22;6141;49.092;8.516;2024-01-25T00:04:44;10.90;43.80
12156;DHT22;6141;49.092;8.516;2024-01-25T00:07:13;10.90;43.50
12156;DHT22;6141;49.092;8.516;2024-01-25T00:09:42;10.90;43.70
12156;DHT22;6141;49.092;8.516;2024-01-25T00:12:10;10.90;44.30
12156;DHT22;6141;49.092;8.516;2024-01-25T00:14:38;11.00;43.50
12156;DHT22;6141;49.092;8.516;2024-01-25T00:17:06;11.00;43.70
12156;DHT22;6141;49.092;8.516;2024-01-25T00:19:34;10.90;43.90
12156;DHT22;6141;49.092;8.516;2024-01-25T00:22:03;11.00;44.60
12156;DHT22;6141;49.092;8.516;2024-01-25T00:24:33;11.10;43.50
12156;DHT22;6141;49.092;8.516;2024-01-25T00:27:01;11.10;44.20
12156;DHT22;6141;49.092;8.516;2024-01-25T00:29:30;11.10;43.80
12156;DHT22;6141;49.092;8.516;2024-01-25T00:31:59;11.30;43.50
12156;DHT22;6141;49.092;8.516;2024-01-25T00:34:27;11.00;44.40
12156;DHT22;6141;49.092;8.516;2024-01-25T00:36:56;11.20;43.90
12156;DHT22;6141;49.092;8.516;2024-01-25T00:39:25;11.40;43.30
12156;DHT22;6141;49.092;8.516;2024-01-25T00:42:04;11.40;42.60
12156;DHT22;6141;49.092;8.516;2024-01-25T00:44:33;11.40;43.10
12156;DHT22;6141;49.092;8.516;2024-01-25T00:47:01;11.50;42.60
12156;DHT22;6141;49.092;8.516;2024-01-25T00:49:30;11.30;43.60
12156;DHT22;6141;49.092;8.516;2024-01-25T00:52:02;11.20;44.40
12156;DHT22;6141;49.092;8.516;2024-01-25T00:54:32;11.20;44.00
12156;DHT22;6141;49.092;8.516;2024-01-25T00:57:02;11.10;45.20
12156;DHT22;6141;49.092;8.516;2024-01-25T00:59:32;11.00;45.60
12156;DHT22;6141;49.092;8.516;2024-01-25T01:02:02;11.00;45.60
12156;DHT22;6141;49.092;8.516;2024-01-25T01:04:35;11.10;45.70
12156;DHT22;6141;49.092;8.516;2024-01-25T01:07:14;11.10;45.20
12156;DHT22;6141;49.092;8.516;2024-01-25T01:09:43;11.20;44.90
12156;DHT22;6141;49.092;8.516;2024-01-25T01:12:13;11.20;44.80
12156;DHT22;6141;49.092;8.516;2024-01-25T01:14:41;11.30;43.80
12156;DHT22;6141;49.092;8.516;2024-01-25T01:17:09;11.30;43.40
12156;DHT22;6141;49.092;8.516;2024-01-25T01:19:37;11.20;43.70
12156;DHT22;6141;49.092;8.516;2024-01-25T01:22:06;11.10;43.80
12156;DHT22;6141;49.092;8.516;2024-01-25T01:24:34;11.10;44.20
12156;DHT22;6141;49.092;8.516;2024-01-25T01:27:03;11.20;43.80
12156;DHT22;6141;49.092;8.516;2024-01-25T01:29:32;11.40;42.10
12156;DHT22;6141;49.092;8.516;2024-01-25T01:32:01;11.50;40.40
12156;DHT22;6141;49.092;8.516;2024-01-25T01:34:29;11.40;41.30
12156;DHT22;6141;49.092;8.516;2024-01-25T01:36:58;11.30;41.90
12156;DHT22;6141;49.092;8.516;2024-01-25T01:39:26;11.20;42.00
12156;DHT22;6141;49.092;8.516;2024-01-25T01:41:54;11.10;42.20
12156;DHT22;6141;49.092;8.516;2024-01-25T01:44:22;11.10;42.50
12156;DHT22;6141;49.092;8.516;2024-01-25T01:46:52;11.20;42.80
12156;DHT22;6141;49.092;8.516;2024-01-25T01:49:21;11.40;41.50
12156;DHT22;6141;49.092;8.516;2024-01-25T01:51:51;11.20;41.40
12156;DHT22;6141;49.092;8.516;2024-01-25T01:54:19;11.20;41.60
12156;DHT22;6141;49.092;8.516;2024-01-25T01:56:48;11.20;41.50
12156;DHT22;6141;49.092;8.516;2024-01-25T01:59:20;11.20;41.90
12156;DHT22;6141;49.092;8.516;2024-01-25T02:01:54;11.10;42.10
12156;DHT22;6141;49.092;8.516;2024-01-25T02:04:22;11.10;41.40
12156;DHT22;6141;49.092;8.516;2024-01-25T02:06:51;11.00;41.50
12156;DHT22;6141;49.092;8.516;2024-01-25T02:09:21;11.10;41.10
12156;DHT22;6141;49.092;8.516;2024-01-25T02:11:59;11.00;41.70
12156;DHT22;6141;49.092;8.516;2024-01-25T02:14:27;11.00;41.70
12156;DHT22;6141;49.092;8.516;2024-01-25T02:16:57;11.00;41.60
12156;DHT22;6141;49.092;8.516;2024-01-25T02:19:25;11.10;41.00
12156;DHT22;6141;49.092;8.516;2024-01-25T02:21:54;11.00;39.60
12156;DHT22;6141;49.092;8.516;2024-01-25T02:24:25;11.10;39.50
12156;DHT22;6141;49.092;8.516;2024-01-25T02:26:53;11.00;39.40
12156;DHT22;6141;49.092;8.516;2024-01-25T02:29:22;10.90;40.30
12156;DHT22;6141;49.092;8.516;2024-01-25T02:31:51;11.10;39.40
12156;DHT22;6141;49.092;8.516;2024-01-25T02:34:19;11.10;38.60
12156;DHT22;6141;49.092;8.516;2024-01-25T02:36:47;11.00;39.30
12156;DHT22;6141;49.092;8.516;2024-01-25T02:39:15;11.20;38.40
12156;DHT22;6141;49.092;8.516;2024-01-25T02:41:45;11.10;38.50
12156;DHT22;6141;49.092;8.516;2024-01-25T02:44:13;11.20;38.40
12156;DHT22;6141;49.092;8.516;2024-01-25T02:46:41;11.20;38.50
12156;DHT22;6141;49.092;8.516;2024-01-25T02:49:11;11.10;38.70
12156;DHT22;6141;49.092;8.516;2024-01-25T02:51:39;11.10;38.50
12156;DHT22;6141;49.092;8.516;2024-01-25T02:54:08;11.00;39.30
12156;DHT22;6141;49.092;8.516;2024-01-25T02:56:36;11.10;38.80
12156;DHT22;6141;49.092;8.516;2024-01-25T02:59:05;11.10;38.20
12156;DHT22;6141;49.092;8.516;2024-01-25T03:01:39;11.20;38.20
12156;DHT22;6141;49.092;8.516;2024-01-25T03:04:08;11.00;38.20
12156;DHT22;6141;49.092;8.516;2024-01-25T03:06:36;11.00;38.80
12156;DHT22;6141;49.092;8.516;2024-01-25T03:09:04;11.10;38.20
12156;DHT22;6141;49.092;8.516;2024-01-25T03:11:32;11.10;38.40
12156;DHT22;6141;49.092;8.516;2024-01-25T03:14:00;11.10;38.00
12156;DHT22;6141;49.092;8.516;2024-01-25T03:16:30;10.90;39.10
12156;DHT22;6141;49.092;8.516;2024-01-25T03:18:58;10.90;39.20
12156;DHT22;6141;49.092;8.516;2024-01-25T03:21:27;10.90;39.20
12156;DHT22;6141;49.092;8.516;2024-01-25T03:23:56;10.80;40.00
12156;DHT22;6141;49.092;8.516;2024-01-25T03:26:26;10.80;39.10
12156;DHT22;6141;49.092;8.516;2024-01-25T03:28:54;11.00;39.40
12156;DHT22;6141;49.092;8.516;2024-01-25T03:31:22;11.00;38.40
12156;DHT22;6141;49.092;8.516;2024-01-25T03:33:52;10.90;38.50
12156;DHT22;6141;49.092;8.516;2024-01-25T03:36:20;10.80;39.00
12156;DHT22;6141;49.092;8.516;2024-01-25T03:38:49;10.90;39.20
12156;DHT22;6141;49.092;8.516;2024-01-25T03:41:17;10.90;39.20
12156;DHT22;6141;49.092;8.516;2024-01-25T03:43:45;10.90;39.10
12156;DHT22;6141;49.092;8.516;2024-01-25T03:46:13;10.90;38.60
12156;DHT22;6141;49.092;8.516;2024-01-25T03:48:41;11.00;38.30
12156;DHT22;6141;49.092;8.516;2024-01-25T03:51:11;11.00;38.70
12156;DHT22;6141;49.092;8.516;2024-01-25T03:53:39;10.90;38.50
12156;DHT22;6141;49.092;8.516;2024-01-25T03:56:13;10.80;39.00
12156;DHT22;6141;49.092;8.516;2024-01-25T03:58:44;10.90;39.10
12156;DHT22;6141;49.092;8.516;2024-01-25T04:01:12;10.80;38.40
12156;DHT22;6141;49.092;8.516;2024-01-25T04:03:40;10.70;39.00
12156;DHT22;6141;49.092;8.516;2024-01-25T04:06:10;10.50;39.30
12156;DHT22;6141;49.092;8.516;2024-01-25T04:08:39;10.70;38.90
12156;DHT22;6141;49.092;8.516;2024-01-25T04:11:07;10.50;38.90
12156;DHT22;6141;49.092;8.516;2024-01-25T04:13:36;10.60;39.00
12156;DHT22;6141;49.092;8.516;2024-01-25T04:16:05;10.60;38.90
12156;DHT22;6141;49.092;8.516;2024-01-25T04:18:33;10.60;38.80
12156;DHT22;6141;49.092;8.516;2024-01-25T04:21:02;10.80;36.50
12156;DHT22;6141;49.092;8.516;2024-01-25T04:23:31;10.80;36.30
12156;DHT22;6141;49.092;8.516;2024-01-25T04:25:59;10.70;36.50
12156;DHT22;6141;49.092;8.516;2024-01-25T04:28:27;10.70;36.80
12156;DHT22;6141;49.092;8.516;2024-01-25T04:30:56;10.60;36.60
12156;DHT22;6141;49.092;8.516;2024-01-25T04:33:25;10.50;36.70
12156;DHT22;6141;49.092;8.516;2024-01-25T04:35:53;10.60;37.00
12156;DHT22;6141;49.092;8.516;2024-01-25T04:38:22;10.50;36.50
12156;DHT22;6141;49.092;8.516;2024-01-25T04:40:52;10.40;37.10
12156;DHT22;6141;49.092;8.516;2024-01-25T04:43:19;10.50;37.00
12156;DHT22;6141;49.092;8.516;2024-01-25T04:45:48;10.60;36.80
12156;DHT22;6141;49.092;8.516;2024-01-25T04:48:16;10.30;36.20
12156;DHT22;6141;49.092;8.516;2024-01-25T04:50:45;10.40;36.90
12156;DHT22;6141;49.092;8.516;2024-01-25T04:53:14;10.40;36.40
12156;DHT22;6141;49.092;8.516;2024-01-25T04:55:42;10.30;37.20
12156;DHT22;6141;49.092;8.516;2024-01-25T04:58:12;10.50;35.80
12156;DHT22;6141;49.092;8.516;2024-01-25T05:00:40;10.60;35.50
12156;DHT22;6141;49.092;8.516;2024-01-25T05:03:09;10.60;34.70
12156;DHT22;6141;49.092;8.516;2024-01-25T05:05:37;10.70;34.50
12156;DHT22;6141;49.092;8.516;2024-01-25T05:08:06;10.70;34.90
12156;DHT22;6141;49.092;8.516;2024-01-25T05:10:34;10.50;34.80
12156;DHT22;6141;49.092;8.516;2024-01-25T05:13:02;10.40;35.40
12156;DHT22;6141;49.092;8.516;2024-01-25T05:15:32;10.40;36.40
12156;DHT22;6141;49.092;8.516;2024-01-25T05:18:01;10.50;35.70
12156;DHT22;6141;49.092;8.516;2024-01-25T05:20:30;10.40;36.00
12156;DHT22;6141;49.092;8.516;2024-01-25T05:23:01;10.50;35.10
12156;DHT22;6141;49.092;8.516;2024-01-25T05:25:30;10.40;35.70
12156;DHT22;6141;49.092;8.516;2024-01-25T05:27:59;10.20;35.90
12156;DHT22;6141;49.092;8.516;2024-01-25T05:30:27;10.00;36.80
12156;DHT22;6141;49.092;8.516;2024-01-25T05:32:58;10.00;37.20
12156;DHT22;6141;49.092;8.516;2024-01-25T05:35:27;10.00;36.60
12156;DHT22;6141;49.092;8.516;2024-01-25T05:37:56;10.10;35.90
12156;DHT22;6141;49.092;8.516;2024-01-25T05:40:24;10.20;37.50
12156;DHT22;6141;49.092;8.516;2024-01-25T05:42:52;10.10;36.00
12156;DHT22;6141;49.092;8.516;2024-01-25T05:45:20;10.00;36.10
12156;DHT22;6141;49.092;8.516;2024-01-25T05:47:50;10.30;34.60
12156;DHT22;6141;49.092;8.516;2024-01-25T05:50:19;10.10;35.10
12156;DHT22;6141;49.092;8.516;2024-01-25T05:52:48;10.00;36.10
12156;DHT22;6141;49.092;8.516;2024-01-25T05:55:16;10.00;35.90
12156;DHT22;6141;49.092;8.516;2024-01-25T05:57:44;10.10;34.80
12156;DHT22;6141;49.092;8.516;2024-01-25T06:00:13;10.10;36.10
12156;DHT22;6141;49.092;8.516;2024-01-25T06:02:46;10.00;35.60
12156;DHT22;6141;49.092;8.516;2024-01-25T06:05:15;10.10;36.40
12156;DHT22;6141;49.092;8.516;2024-01-25T06:07:45;10.30;34.00
12156;DHT22;6141;49.092;8.516;2024-01-25T06:10:13;10.50;33.70
12156;DHT22;6141;49.092;8.516;2024-01-25T06:12:42;10.50;33.30
12156;DHT22;6141;49.092;8.516;2024-01-25T06:15:10;10.30;32.90
12156;DHT22;6141;49.092;8.516;2024-01-25T06:17:38;10.60;32.60
12156;DHT22;6141;49.092;8.516;2024-01-25T06:20:07;10.70;32.70
12156;DHT22;6141;49.092;8.516;2024-01-25T06:22:35;10.70;32.70
12156;DHT22;6141;49.092;8.516;2024-01-25T06:25:05;10.60;32.60
12156;DHT22;6141;49.092;8.516;2024-01-25T06:27:34;10.40;32.40
12156;DHT22;6141;49.092;8.516;2024-01-25T06:30:03;10.20;33.60
12156;DHT22;6141;49.092;8.516;2024-01-25T06:32:32;10.30;32.30
12156;DHT22;6141;49.092;8.516;2024-01-25T06:35:03;10.20;33.10
12156;DHT22;6141;49.092;8.516;2024-01-25T06:37:32;10.30;32.80
12156;DHT22;6141;49.092;8.516;2024-01-25T06:40:00;10.00;33.90
12156;DHT22;6141;49.092;8.516;2024-01-25T06:42:31;9.80;37.10
12156;DHT22;6141;49.092;8.516;2024-01-25T06:44:59;9.80;37.30
12156;DHT22;6141;49.092;8.516;2024-01-25T06:47:27;9.70;37.80
12156;DHT22;6141;49.092;8.516;2024-01-25T06:49:56;9.60;38.80
12156;DHT22;6141;49.092;8.516;2024-01-25T06:52:24;9.30;40.30
12156;DHT22;6141;49.092;8.516;2024-01-25T06:54:55;9.10;41.60
12156;DHT22;6141;49.092;8.516;2024-01-25T06:57:23;8.90;43.00
12156;DHT22;6141;49.092;8.516;2024-01-25T06:59:53;8.90;43.20
12156;DHT22;6141;49.092;8.516;2024-01-25T07:02:21;9.10;42.50
12156;DHT22;6141;49.092;8.516;2024-01-25T07:04:50;9.50;39.00
12156;DHT22;6141;49.092;8.516;2024-01-25T07:07:20;9.80;37.70
12156;DHT22;6141;49.092;8.516;2024-01-25T07:09:48;10.00;35.70
12156;DHT22;6141;49.092;8.516;2024-01-25T07:12:17;10.20;34.40
12156;DHT22;6141;49.092;8.516;2024-01-25T07:14:46;10.30;34.20
12156;DHT22;6141;49.092;8.516;2024-01-25T07:17:15;10.00;34.20
12156;DHT22;6141;49.092;8.516;2024-01-25T07:19:43;10.10;33.70
12156;DHT22;6141;49.092;8.516;2024-01-25T07:22:11;10.00;34.70
12156;DHT22;6141;49.092;8.516;2024-01-25T07:24:42;10.10;34.50
12156;DHT22;6141;49.092;8.516;2024-01-25T07:27:10;10.30;33.50
12156;DHT22;6141;49.092;8.516;2024-01-25T07:29:38;10.50;32.50
12156;DHT22;6141;49.092;8.516;2024-01-25T07:32:06;10.60;32.60
12156;DHT22;6141;49.092;8.516;2024-01-25T07:34:36;10.60;31.60
12156;DHT22;6141;49.092;8.516;2024-01-25T07:37:04;10.30;31.80
12156;DHT22;6141;49.092;8.516;2024-01-25T07:39:33;10.10;32.10
12156;DHT22;6141;49.092;8.516;2024-01-25T07:42:02;10.20;32.20
12156;DHT22;6141;49.092;8.516;2024-01-25T07:44:30;10.00;32.00
12156;DHT22;6141;49.092;8.516;2024-01-25T07:46:58;9.60;35.90
12156;DHT22;6141;49.092;8.516;2024-01-25T07:49:26;9.10;38.60
12156;DHT22;6141;49.092;8.516;2024-01-25T07:51:56;9.40;37.80
12156;DHT22;6141;49.092;8.516;2024-01-25T07:54:24;9.70;35.90
12156;DHT22;6141;49.092;8.516;2024-01-25T07:56:52;10.00;33.10
12156;DHT22;6141;49.092;8.516;2024-01-25T07:59:22;10.10;32.10
12156;DHT22;6141;49.092;8.516;2024-01-25T08:01:50;10.10;33.00
12156;DHT22;6141;49.092;8.516;2024-01-25T08:04:18;9.90;35.10
12156;DHT22;6141;49.092;8.516;2024-01-25T08:06:47;9.60;36.90
12156;DHT22;6141;49.092;8.516;2024-01-25T08:09:16;9.50;38.40
12156;DHT22;6141;49.092;8.516;2024-01-25T08:11:45;9.70;38.00
12156;DHT22;6141;49.092;8.516;2024-01-25T08:14:13;9.60;39.10
12156;DHT22;6141;49.092;8.516;2024-01-25T08:16:42;9.80;39.30
12156;DHT22;6141;49.092;8.516;2024-01-25T08:19:10;9.40;42.20
12156;DHT22;6141;49.092;8.516;2024-01-25T08:21:39;9.00;44.80
12156;DHT22;6141;49.092;8.516;2024-01-25T08:24:07;9.20;44.90
12156;DHT22;6141;49.092;8.516;2024-01-25T08:26:36;9.30;45.10
12156;DHT22;6141;49.092;8.516;2024-01-25T08:29:04;9.30;45.10
12156;DHT22;6141;49.092;8.516;2024-01-25T08:31:32;9.20;44.90
12156;DHT22;6141;49.092;8.516;2024-01-25T08:34:01;9.30;45.10
12156;DHT22;6141;49.092;8.516;2024-01-25T08:36:29;9.60;45.30
12156;DHT22;6141;49.092;8.516;2024-01-25T08:38:57;9.90;43.60
12156;DHT22;6141;49.092;8.516;2024-01-25T08:41:25;10.10;41.70
12156;DHT22;6141;49.092;8.516;2024-01-25T08:43:55;10.20;43.50
12156;DHT22;6141;49.092;8.516;2024-01-25T08:46:24;10.10;47.50
12156;DHT22;6141;49.092;8.516;2024-01-25T08:48:52;9.80;52.30
12156;DHT22;6141;49.092;8.516;2024-01-25T08:51:21;9.70;57.00
12156;DHT22;6141;49.092;8.516;2024-01-25T08:53:49;9.70;59.20
12156;DHT22;6141;49.092;8.516;2024-01-25T08:56:18;9.70;60.60
12156;DHT22;6141;49.092;8.516;2024-01-25T08:58:46;10.00;58.80
12156;DHT22;6141;49.092;8.516;2024-01-25T09:01:15;9.90;59.70
12156;DHT22;6141;49.092;8.516;2024-01-25T09:03:44;10.00;57.90
12156;DHT22;6141;49.092;8.516;2024-01-25T09:06:12;10.10;57.90
12156;DHT22;6141;49.092;8.516;2024-01-25T09:08:42;10.10;57.90
12156;DHT22;6141;49.092;8.516;2024-01-25T09:11:11;10.40;57.20
12156;DHT22;6141;49.092;8.516;2024-01-25T09:13:39;10.70;54.60
12156;DHT22;6141;49.092;8.516;2024-01-25T09:16:12;10.80;53.70
12156;DHT22;6141;49.092;8.516;2024-01-25T09:18:42;10.70;54.60
12156;DHT22;6141;49.092;8.516;2024-01-25T09:21:12;10.80;54.70
12156;DHT22;6141;49.092;8.516;2024-01-25T09:23:40;10.90;53.50
12156;DHT22;6141;49.092;8.516;2024-01-25T09:26:08;10.80;52.60
12156;DHT22;6141;49.092;8.516;2024-01-25T09:28:36;10.80;52.10
12156;DHT22;6141;49.092;8.516;2024-01-25T09:31:05;10.90;52.90
12156;DHT22;6141;49.092;8.516;2024-01-25T09:33:34;11.00;51.70
12156;DHT22;6141;49.092;8.516;2024-01-25T09:36:04;11.00;51.20
12156;DHT22;6141;49.092;8.516;2024-01-25T09:38:32;11.10;52.30
12156;DHT22;6141;49.092;8.516;2024-01-25T09:41:01;11.20;52.00
12156;DHT22;6141;49.092;8.516;2024-01-25T09:43:30;11.10;52.10
12156;DHT22;6141;49.092;8.516;2024-01-25T09:46:00;11.20;51.10
12156;DHT22;6141;49.092;8.516;2024-01-25T09:48:28;11.60;47.70
12156;DHT22;6141;49.092;8.516;2024-01-25T09:50:59;11.80;46.40
12156;DHT22;6141;49.092;8.516;2024-01-25T09:53:30;12.00;45.70
12156;DHT22;6141;49.092;8.516;2024-01-25T09:56:06;11.80;44.80
12156;DHT22;6141;49.092;8.516;2024-01-25T09:58:37;11.80;46.40
12156;DHT22;6141;49.092;8.516;2024-01-25T10:01:08;11.70;46.30
12156;DHT22;6141;49.092;8.516;2024-01-25T10:03:38;11.80;47.10
12156;DHT22;6141;49.092;8.516;2024-01-25T10:06:08;12.00;45.60
12156;DHT22;6141;49.092;8.516;2024-01-25T10:08:38;12.10;45.00
12156;DHT22;6141;49.092;8.516;2024-01-25T10:11:06;12.10;44.80
12156;DHT22;6141;49.092;8.516;2024-01-25T10:13:40;12.00;43.90
12156;DHT22;6141;49.092;8.516;2024-01-25T10:16:11;11.80;44.80
12156;DHT22;6141;49.092;8.516;2024-01-25T10:18:41;11.80;46.40
12156;DHT22;6141;49.092;8.516;2024-01-25T10:21:11;11.70;45.80
12156;DHT22;6141;49.092;8.516;2024-01-25T10:23:41;11.70;46.30
12156;DHT22;6141;49.092;8.516;2024-01-25T10:26:11;11.60;46.70
12156;DHT22;6141;49.092;8.516;2024-01-25T10:28:40;11.70;46.30
12156;DHT22;6141;49.092;8.516;2024-01-25T10:31:08;11.80;46.40
12156;DHT22;6141;49.092;8.516;2024-01-25T10:33:38;11.80;45.50
12156;DHT22;6141;49.092;8.516;2024-01-25T10:36:08;11.70;46.30
12156;DHT22;6141;49.092;8.516;2024-01-25T10:38:41;11.80;44.60
12156;DHT22;6141;49.092;8.516;2024-01-25T10:41:11;11.70;43.60
12156;DHT22;6141;49.092;8.516;2024-01-25T10:43:41;11.70;44.20
12156;DHT22;6141;49.092;8.516;2024-01-25T10:46:10;11.70;43.70
12156;DHT22;6141;49.092;8.516;2024-01-25T10:48:39;11.70;43.10
12156;DHT22;6141;49.092;8.516;2024-01-25T10:51:09;11.70;41.90
12156;DHT22;6141;49.092;8.516;2024-01-25T10:53:41;11.50;42.40
12156;DHT22;6141;49.092;8.516;2024-01-25T10:56:09;11.50;42.20
12156;DHT22;6141;49.092;8.516;2024-01-25T10:58:40;11.60;42.50
12156;DHT22;6141;49.092;8.516;2024-01-25T11:01:09;11.50;41.70
12156;DHT22;6141;49.092;8.516;2024-01-25T11:03:45;11.40;43.10
12156;DHT22;6141;49.092;8.516;2024-01-25T11:06:14;11.40;41.80
12156;DHT22;6141;49.092;8.516;2024-01-25T11:08:43;11.60;42.60
12156;DHT22;6141;49.092;8.516;2024-01-25T11:11:13;11.70;39.50
12156;DHT22;6141;49.092;8.516;2024-01-25T11:13:42;11.60;40.40
12156;DHT22;6141;49.092;8.516;2024-01-25T11:16:15;11.70;41.20
12156;DHT22;6141;49.092;8.516;2024-01-25T11:18:50;11.90;40.30
12156;DHT22;6141;49.092;8.516;2024-01-25T11:21:25;12.30;38.40
12156;DHT22;6141;49.092;8.516;2024-01-25T11:24:02;12.40;36.40
12156;DHT22;6141;49.092;8.516;2024-01-25T11:26:32;12.40;35.90
12156;DHT22;6141;49.092;8.516;2024-01-25T11:29:02;12.50;36.20
12156;DHT22;6141;49.092;8.516;2024-01-25T11:31:30;12.80;34.30
12156;DHT22;6141;49.092;8.516;2024-01-25T11:33:59;13.00;32.10
12156;DHT22;6141;49.092;8.516;2024-01-25T11:36:28;13.00;33.20
12156;DHT22;6141;49.092;8.516;2024-01-25T11:38:57;13.00;32.20
12156;DHT22;6141;49.092;8.516;2024-01-25T11:41:26;12.80;30.60
12156;DHT22;6141;49.092;8.516;2024-01-25T11:43:55;12.70;29.90
12156;DHT22;6141;49.092;8.516;2024-01-25T11:46:23;12.60;31.00
12156;DHT22;6141;49.092;8.516;2024-01-25T11:48:53;12.60;31.40
12156;DHT22;6141;49.092;8.516;2024-01-25T11:51:21;12.40;31.40
12156;DHT22;6141;49.092;8.516;2024-01-25T11:53:49;12.20;33.10
12156;DHT22;6141;49.092;8.516;2024-01-25T11:56:20;12.20;34.20
12156;DHT22;6141;49.092;8.516;2024-01-25T11:58:50;12.40;32.70
12156;DHT22;6141;49.092;8.516;2024-01-25T12:01:19;12.40;34.10
12156;DHT22;6141;49.092;8.516;2024-01-25T12:03:48;12.30;33.00
12156;DHT22;6141;49.092;8.516;2024-01-25T12:06:17;12.50;34.50
12156;DHT22;6141;49.092;8.516;2024-01-25T12:08:46;12.50;32.60
12156;DHT22;6141;49.092;8.516;2024-01-25T12:11:15;12.30;34.30
12156;DHT22;6141;49.092;8.516;2024-01-25T12:13:45;12.20;34.70
12156;DHT22;6141;49.092;8.516;2024-01-25T12:16:15;12.20;35.70
12156;DHT22;6141;49.092;8.516;2024-01-25T12:18:44;12.30;34.70
12156;DHT22;6141;49.092;8.516;2024-01-25T12:21:13;12.30;34.40
12156;DHT22;6141;49.092;8.516;2024-01-25T12:23:42;12.40;34.40
12156;DHT22;6141;49.092;8.516;2024-01-25T12:26:11;12.10;32.10
12156;DHT22;6141;49.092;8.516;2024-01-25T12:28:39;12.20;34.20
12156;DHT22;6141;49.092;8.516;2024-01-25T12:31:09;12.20;33.80
12156;DHT22;6141;49.092;8.516;2024-01-25T12:33:41;12.50;31.50
12156;DHT22;6141;49.092;8.516;2024-01-25T12:36:11;12.50;31.80
12156;DHT22;6141;49.092;8.516;2024-01-25T12:38:40;12.40;29.70
12156;DHT22;6141;49.092;8.516;2024-01-25T12:41:08;12.50;30.10
12156;DHT22;6141;49.092;8.516;2024-01-25T12:43:36;12.60;29.40
12156;DHT22;6141;49.092;8.516;2024-01-25T12:46:05;12.70;28.80
12156;DHT22;6141;49.092;8.516;2024-01-25T12:48:53;12.70;30.00
12156;DHT22;6141;49.092;8.516;2024-01-25T12:51:24;13.10;29.90
12156;DHT22;6141;49.092;8.516;2024-01-25T12:53:53;13.00;29.50
12156;DHT22;6141;49.092;8.516;2024-01-25T12:56:22;13.10;31.60
12156;DHT22;6141;49.092;8.516;2024-01-25T12:58:50;13.40;30.80
12156;DHT22;6141;49.092;8.516;2024-01-25T13:01:19;13.30;27.80
12156;DHT22;6141;49.092;8.516;2024-01-25T13:03:48;13.30;30.00
12156;DHT22;6141;49.092;8.516;2024-01-25T13:06:18;13.60;28.60
12156;DHT22;6141;49.092;8.516;2024-01-25T13:08:47;13.60;26.90
12156;DHT22;6141;49.092;8.516;2024-01-25T13:11:16;13.50;26.80
12156;DHT22;6141;49.092;8.516;2024-01-25T13:13:44;13.20;29.10
12156;DHT22;6141;49.092;8.516;2024-01-25T13:16:12;13.10;29.10
12156;DHT22;6141;49.092;8.516;2024-01-25T13:18:40;13.00;29.00
12156;DHT22;6141;49.092;8.516;2024-01-25T13:21:09;12.80;29.40
12156;DHT22;6141;49.092;8.516;2024-01-25T13:23:39;12.60;30.40
12156;DHT22;6141;49.092;8.516;2024-01-25T13:26:07;12.70;30.00
12156;DHT22;6141;49.092;8.516;2024-01-25T13:28:35;12.70;28.80
12156;DHT22;6141;49.092;8.516;2024-01-25T13:31:03;12.70;29.00
12156;DHT22;6141;49.092;8.516;2024-01-25T13:33:32;12.60;28.70
12156;DHT22;6141;49.092;8.516;2024-01-25T13:36:00;12.70;29.80
12156;DHT22;6141;49.092;8.516;2024-01-25T13:38:29;12.80;28.80
12156;DHT22;6141;49.092;8.516;2024-01-25T13:40:58;12.70;28.80
12156;DHT22;6141;49.092;8.516;2024-01-25T13:43:26;12.70;28.80
12156;DHT22;6141;49.092;8.516;2024-01-25T13:45:55;12.70;29.50
12156;DHT22;6141;49.092;8.516;2024-01-25T13:48:24;12.70;29.30
12156;DHT22;6141;49.092;8.516;2024-01-25T13:50:52;12.80;27.80
12156;DHT22;6141;49.092;8.516;2024-01-25T13:53:20;12.70;28.70
12156;DHT22;6141;49.092;8.516;2024-01-25T13:55:48;12.80;28.80
12156;DHT22;6141;49.092;8.516;2024-01-25T13:58:20;12.80;28.80
12156;DHT22;6141;49.092;8.516;2024-01-25T14:00:48;12.80;28.20
12156;DHT22;6141;49.092;8.516;2024-01-25T14:03:16;13.00;28.60
12156;DHT22;6141;49.092;8.516;2024-01-25T14:05:45;13.20;28.20
12156;DHT22;6141;49.092;8.516;2024-01-25T14:08:13;13.10;27.80
12156;DHT22;6141;49.092;8.516;2024-01-25T14:10:42;13.00;29.00
12156;DHT22;6141;49.092;8.516;2024-01-25T14:13:10;12.60;29.30
12156;DHT22;6141;49.092;8.516;2024-01-25T14:15:40;12.70;30.60
12156;DHT22;6141;49.092;8.516;2024-01-25T14:18:08;12.80;30.30
12156;DHT22;6141;49.092;8.516;2024-01-25T14:20:37;12.70;30.70
12156;DHT22;6141;49.092;8.516;2024-01-25T14:23:05;12.50;31.10
12156;DHT22;6141;49.092;8.516;2024-01-25T14:25:33;12.40;31.50
12156;DHT22;6141;49.092;8.516;2024-01-25T14:28:02;12.30;31.20
12156;DHT22;6141;49.092;8.516;2024-01-25T14:30:30;12.10;32.50
12156;DHT22;6141;49.092;8.516;2024-01-25T14:33:01;12.30;32.50
12156;DHT22;6141;49.092;8.516;2024-01-25T14:35:30;12.30;32.50
12156;DHT22;6141;49.092;8.516;2024-01-25T14:37:58;12.40;32.90
12156;DHT22;6141;49.092;8.516;2024-01-25T14:40:26;12.20;32.60
12156;DHT22;6141;49.092;8.516;2024-01-25T14:43:15;12.20;33.80
12156;DHT22;6141;49.092;8.516;2024-01-25T14:45:43;12.10;34.20
12156;DHT22;6141;49.092;8.516;2024-01-25T14:48:12;12.10;35.00
12156;DHT22;6141;49.092;8.516;2024-01-25T14:50:41;12.10;36.90
12156;DHT22;6141;49.092;8.516;2024-01-25T14:53:09;12.00;35.70
12156;DHT22;6141;49.092;8.516;2024-01-25T14:55:38;11.90;36.20
12156;DHT22;6141;49.092;8.516;2024-01-25T14:58:06;11.80;37.50
12156;DHT22;6141;49.092;8.516;2024-01-25T15:00:35;11.80;38.10
12156;DHT22;6141;49.092;8.516;2024-01-25T15:03:04;11.90;38.80
12156;DHT22;6141;49.092;8.516;2024-01-25T15:05:35;12.10;37.20
12156;DHT22;6141;49.092;8.516;2024-01-25T15:08:04;12.00;37.80
12156;DHT22;6141;49.092;8.516;2024-01-25T15:10:32;11.90;38.80
12156;DHT22;6141;49.092;8.516;2024-01-25T15:13:08;11.90;38.70
12156;DHT22;6141;49.092;8.516;2024-01-25T15:15:36;11.70;40.10
12156;DHT22;6141;49.092;8.516;2024-01-25T15:18:04;11.70;41.00
12156;DHT22;6141;49.092;8.516;2024-01-25T15:20:35;11.60;41.00
12156;DHT22;6141;49.092;8.516;2024-01-25T15:23:03;11.50;42.30
12156;DHT22;6141;49.092;8.516;2024-01-25T15:25:31;11.50;43.00
12156;DHT22;6141;49.092;8.516;2024-01-25T15:27:59;11.50;42.70
12156;DHT22;6141;49.092;8.516;2024-01-25T15:30:27;11.70;42.10
12156;DHT22;6141;49.092;8.516;2024-01-25T15:32:56;11.70;41.80
12156;DHT22;6141;49.092;8.516;2024-01-25T15:35:24;11.60;42.20
12156;DHT22;6141;49.092;8.516;2024-01-25T15:37:53;11.60;42.30
12156;DHT22;6141;49.092;8.516;2024-01-25T15:40:21;11.70;41.70
12156;DHT22;6141;49.092;8.516;2024-01-25T15:42:50;11.70;41.70
12156;DHT22;6141;49.092;8.516;2024-01-25T15:45:21;11.60;43.00
12156;DHT22;6141;49.092;8.516;2024-01-25T15:47:49;11.60;42.30
12156;DHT22;6141;49.092;8.516;2024-01-25T15:50:17;11.40;43.50
12156;DHT22;6141;49.092;8.516;2024-01-25T15:52:46;11.30;45.90
12156;DHT22;6141;49.092;8.516;2024-01-25T15:55:16;11.20;48.40
12156;DHT22;6141;49.092;8.516;2024-01-25T15:57:44;11.10;48.60
12156;DHT22;6141;49.092;8.516;2024-01-25T16:00:13;11.20;48.60